sensor_id;sensor_type;location;lat;lon;timestamp;P1;durP1;ratioP1;P2;durP2;ratioP2
37677;SDS011;23517;50.390;8.616;2023-04-15T00:01:09;2.58;;;1.40;;
37677;SDS011;23517;50.390;8.616;2023-04-15T00:03:36;5.35;;;1.42;;
37677;SDS011;23517;50.390;8.616;2023-04-15T00:06:04;5.88;;;1.52;;
37677;SDS011;23517;50.390;8.616;2023-04-15T00:08:31;3.38;;;1.70;;
37677;SDS011;23517;50.390;8.616;2023-04-15T00:10:58;2.88;;;1.50;;
37677;SDS011;23517;50.390;8.616;2023-04-15T00:13:28;4.75;;;1.55;;
37677;SDS011;23517;50.390;8.616;2023-04-15T00:15:55;4.38;;;1.30;;
37677;SDS011;23517;50.390;8.616;2023-04-15T00:18:22;2.35;;;1.50;;
37677;SDS011;23517;50.390;8.616;2023-04-15T00:20:49;4.53;;;1.52;;
37677;SDS011;23517;50.390;8.616;2023-04-15T00:23:17;3.95;;;1.48;;
37677;SDS011;23517;50.390;8.616;2023-04-15T00:25:44;5.43;;;1.30;;
37677;SDS011;23517;50.390;8.616;2023-04-15T00:28:10;2.72;;;1.40;;
37677;SDS011;23517;50.390;8.616;2023-04-15T00:30:37;2.55;;;1.23;;
37677;SDS011;23517;50.390;8.616;2023-04-15T00:33:04;3.35;;;1.95;;
37677;SDS011;23517;50.390;8.616;2023-04-15T00:35:31;4.97;;;1.50;;
37677;SDS011;23517;50.390;8.616;2023-04-15T00:37:58;4.93;;;1.30;;
37677;SDS011;23517;50.390;8.616;2023-04-15T00:40:25;6.70;;;1.35;;
37677;SDS011;23517;50.390;8.616;2023-04-15T00:42:52;2.33;;;1.30;;
37677;SDS011;23517;50.390;8.616;2023-04-15T00:45:20;3.83;;;1.20;;
37677;SDS011;23517;50.390;8.616;2023-04-15T00:47:47;3.70;;;1.65;;
37677;SDS011;23517;50.390;8.616;2023-04-15T00:50:14;3.75;;;1.40;;
37677;SDS011;23517;50.390;8.616;2023-04-15T00:52:40;4.20;;;1.60;;
37677;SDS011;23517;50.390;8.616;2023-04-15T00:55:07;4.70;;;1.63;;
37677;SDS011;23517;50.390;8.616;2023-04-15T00:57:35;4.57;;;1.70;;
37677;SDS011;23517;50.390;8.616;2023-04-15T01:00:02;1.85;;;1.40;;
37677;SDS011;23517;50.390;8.616;2023-04-15T01:02:33;3.10;;;1.55;;
37677;SDS011;23517;50.390;8.616;2023-04-15T01:05:02;5.13;;;1.42;;
37677;SDS011;23517;50.390;8.616;2023-04-15T01:07:30;2.78;;;1.48;;
37677;SDS011;23517;50.390;8.616;2023-04-15T01:09:58;2.53;;;1.40;;
37677;SDS011;23517;50.390;8.616;2023-04-15T01:12:25;2.58;;;1.50;;
37677;SDS011;23517;50.390;8.616;2023-04-15T01:14:52;6.32;;;1.35;;
37677;SDS011;23517;50.390;8.616;2023-04-15T01:17:20;3.92;;;1.73;;
37677;SDS011;23517;50.390;8.616;2023-04-15T01:19:47;2.58;;;1.63;;
37677;SDS011;23517;50.390;8.616;2023-04-15T01:22:24;2.08;;;1.42;;
37677;SDS011;23517;50.390;8.616;2023-04-15T01:25:00;3.45;;;1.52;;
37677;SDS011;23517;50.390;8.616;2023-04-15T01:27:39;2.92;;;1.70;;
37677;SDS011;23517;50.390;8.616;2023-04-15T01:30:07;2.42;;;1.67;;
37677;SDS011;23517;50.390;8.616;2023-04-15T01:32:38;2.90;;;1.52;;
37677;SDS011;23517;50.390;8.616;2023-04-15T01:35:05;3.83;;;2.00;;
37677;SDS011;23517;50.390;8.616;2023-04-15T01:37:32;3.72;;;1.70;;
37677;SDS011;23517;50.390;8.616;2023-04-15T01:40:00;2.17;;;1.58;;
37677;SDS011;23517;50.390;8.616;2023-04-15T01:42:27;2.85;;;1.73;;
37677;SDS011;23517;50.390;8.616;2023-04-15T01:44:53;2.08;;;1.65;;
37677;SDS011;23517;50.390;8.616;2023-04-15T01:47:20;4.40;;;1.83;;
37677;SDS011;23517;50.390;8.616;2023-04-15T01:49:47;4.30;;;1.95;;
37677;SDS011;23517;50.390;8.616;2023-04-15T01:52:14;3.40;;;2.67;;
37677;SDS011;23517;50.390;8.616;2023-04-15T01:54:40;4.38;;;1.52;;
37677;SDS011;23517;50.390;8.616;2023-04-15T01:57:07;2.45;;;1.60;;
37677;SDS011;23517;50.390;8.616;2023-04-15T01:59:34;3.85;;;1.60;;
37677;SDS011;23517;50.390;8.616;2023-04-15T02:02:03;3.45;;;1.95;;
37677;SDS011;23517;50.390;8.616;2023-04-15T02:04:31;2.28;;;1.85;;
37677;SDS011;23517;50.390;8.616;2023-04-15T02:06:57;2.92;;;1.85;;
37677;SDS011;23517;50.390;8.616;2023-04-15T02:09:25;2.15;;;1.77;;
37677;SDS011;23517;50.390;8.616;2023-04-15T02:11:51;2.97;;;1.67;;
37677;SDS011;23517;50.390;8.616;2023-04-15T02:14:21;2.75;;;1.85;;
37677;SDS011;23517;50.390;8.616;2023-04-15T02:16:48;4.28;;;2.15;;
37677;SDS011;23517;50.390;8.616;2023-04-15T02:19:15;3.63;;;1.90;;
37677;SDS011;23517;50.390;8.616;2023-04-15T02:21:41;2.75;;;1.67;;
37677;SDS011;23517;50.390;8.616;2023-04-15T02:24:08;5.75;;;2.10;;
37677;SDS011;23517;50.390;8.616;2023-04-15T02:26:35;3.85;;;1.85;;
37677;SDS011;23517;50.390;8.616;2023-04-15T02:29:02;2.00;;;1.80;;
37677;SDS011;23517;50.390;8.616;2023-04-15T02:31:29;2.92;;;1.77;;
37677;SDS011;23517;50.390;8.616;2023-04-15T02:33:55;3.30;;;1.77;;
37677;SDS011;23517;50.390;8.616;2023-04-15T02:36:22;4.07;;;1.65;;
37677;SDS011;23517;50.390;8.616;2023-04-15T02:38:49;2.13;;;1.88;;
37677;SDS011;23517;50.390;8.616;2023-04-15T02:41:15;1.77;;;1.63;;
37677;SDS011;23517;50.390;8.616;2023-04-15T02:43:42;4.05;;;1.83;;
37677;SDS011;23517;50.390;8.616;2023-04-15T02:46:09;2.75;;;2.00;;
37677;SDS011;23517;50.390;8.616;2023-04-15T02:48:39;4.40;;;2.10;;
37677;SDS011;23517;50.390;8.616;2023-04-15T02:51:10;4.47;;;1.75;;
37677;SDS011;23517;50.390;8.616;2023-04-15T02:53:41;3.35;;;1.88;;
37677;SDS011;23517;50.390;8.616;2023-04-15T02:56:08;3.08;;;1.98;;
37677;SDS011;23517;50.390;8.616;2023-04-15T02:58:35;4.20;;;1.90;;
37677;SDS011;23517;50.390;8.616;2023-04-15T03:01:01;3.15;;;2.17;;
37677;SDS011;23517;50.390;8.616;2023-04-15T03:03:28;3.50;;;1.60;;
37677;SDS011;23517;50.390;8.616;2023-04-15T03:05:55;3.65;;;2.03;;
37677;SDS011;23517;50.390;8.616;2023-04-15T03:08:21;4.93;;;2.28;;
37677;SDS011;23517;50.390;8.616;2023-04-15T03:10:48;4.93;;;1.92;;
37677;SDS011;23517;50.390;8.616;2023-04-15T03:13:17;3.28;;;2.63;;
37677;SDS011;23517;50.390;8.616;2023-04-15T03:15:47;6.60;;;2.08;;
37677;SDS011;23517;50.390;8.616;2023-04-15T03:18:13;3.45;;;2.17;;
37677;SDS011;23517;50.390;8.616;2023-04-15T03:20:42;3.10;;;1.60;;
37677;SDS011;23517;50.390;8.616;2023-04-15T03:23:09;1.85;;;1.65;;
37677;SDS011;23517;50.390;8.616;2023-04-15T03:25:36;4.68;;;1.90;;
37677;SDS011;23517;50.390;8.616;2023-04-15T03:28:02;3.88;;;2.05;;
37677;SDS011;23517;50.390;8.616;2023-04-15T03:30:29;3.63;;;1.73;;
37677;SDS011;23517;50.390;8.616;2023-04-15T03:32:56;2.92;;;1.80;;
37677;SDS011;23517;50.390;8.616;2023-04-15T03:35:23;3.05;;;2.00;;
37677;SDS011;23517;50.390;8.616;2023-04-15T03:37:49;4.95;;;1.70;;
37677;SDS011;23517;50.390;8.616;2023-04-15T03:40:16;2.83;;;1.98;;
37677;SDS011;23517;50.390;8.616;2023-04-15T03:42:43;3.22;;;2.10;;
37677;SDS011;23517;50.390;8.616;2023-04-15T03:45:10;9.38;;;3.00;;
37677;SDS011;23517;50.390;8.616;2023-04-15T03:47:36;4.47;;;2.20;;
37677;SDS011;23517;50.390;8.616;2023-04-15T03:50:03;5.45;;;1.63;;
37677;SDS011;23517;50.390;8.616;2023-04-15T03:52:30;4.47;;;1.83;;
37677;SDS011;23517;50.390;8.616;2023-04-15T03:54:57;4.45;;;1.90;;
37677;SDS011;23517;50.390;8.616;2023-04-15T03:57:24;4.20;;;2.20;;
37677;SDS011;23517;50.390;8.616;2023-04-15T03:59:50;2.78;;;1.70;;
37677;SDS011;23517;50.390;8.616;2023-04-15T04:02:17;2.97;;;1.83;;
37677;SDS011;23517;50.390;8.616;2023-04-15T04:04:44;2.20;;;1.70;;
37677;SDS011;23517;50.390;8.616;2023-04-15T04:07:14;2.92;;;1.75;;
37677;SDS011;23517;50.390;8.616;2023-04-15T04:09:41;3.05;;;1.77;;
37677;SDS011;23517;50.390;8.616;2023-04-15T04:12:10;2.85;;;1.80;;
37677;SDS011;23517;50.390;8.616;2023-04-15T04:14:36;1.90;;;1.52;;
37677;SDS011;23517;50.390;8.616;2023-04-15T04:17:03;3.47;;;1.70;;
37677;SDS011;23517;50.390;8.616;2023-04-15T04:19:30;7.35;;;2.00;;
37677;SDS011;23517;50.390;8.616;2023-04-15T04:21:57;2.83;;;1.70;;
37677;SDS011;23517;50.390;8.616;2023-04-15T04:24:31;5.05;;;1.90;;
37677;SDS011;23517;50.390;8.616;2023-04-15T04:26:57;6.10;;;2.17;;
37677;SDS011;23517;50.390;8.616;2023-04-15T04:29:24;4.03;;;1.92;;
37677;SDS011;23517;50.390;8.616;2023-04-15T04:31:51;2.42;;;2.00;;
37677;SDS011;23517;50.390;8.616;2023-04-15T04:34:17;2.15;;;1.65;;
37677;SDS011;23517;50.390;8.616;2023-04-15T04:36:44;2.92;;;1.80;;
37677;SDS011;23517;50.390;8.616;2023-04-15T04:39:11;5.43;;;1.95;;
37677;SDS011;23517;50.390;8.616;2023-04-15T04:41:37;4.45;;;1.80;;
37677;SDS011;23517;50.390;8.616;2023-04-15T04:44:04;3.80;;;2.20;;
37677;SDS011;23517;50.390;8.616;2023-04-15T04:46:30;2.50;;;1.98;;
37677;SDS011;23517;50.390;8.616;2023-04-15T04:48:57;3.65;;;2.22;;
37677;SDS011;23517;50.390;8.616;2023-04-15T04:51:24;4.55;;;3.10;;
37677;SDS011;23517;50.390;8.616;2023-04-15T04:53:52;5.88;;;3.10;;
37677;SDS011;23517;50.390;8.616;2023-04-15T04:56:19;3.63;;;2.88;;
37677;SDS011;23517;50.390;8.616;2023-04-15T04:58:46;4.80;;;3.47;;
37677;SDS011;23517;50.390;8.616;2023-04-15T05:01:12;6.70;;;3.78;;
37677;SDS011;23517;50.390;8.616;2023-04-15T05:03:39;5.50;;;3.95;;
37677;SDS011;23517;50.390;8.616;2023-04-15T05:06:06;3.92;;;3.53;;
37677;SDS011;23517;50.390;8.616;2023-04-15T05:08:33;6.93;;;3.60;;
37677;SDS011;23517;50.390;8.616;2023-04-15T05:11:01;7.55;;;2.88;;
37677;SDS011;23517;50.390;8.616;2023-04-15T05:13:28;4.20;;;2.70;;
37677;SDS011;23517;50.390;8.616;2023-04-15T05:15:55;5.22;;;2.83;;
37677;SDS011;23517;50.390;8.616;2023-04-15T05:18:21;4.15;;;2.72;;
37677;SDS011;23517;50.390;8.616;2023-04-15T05:20:48;2.88;;;2.60;;
37677;SDS011;23517;50.390;8.616;2023-04-15T05:23:15;3.85;;;2.67;;
37677;SDS011;23517;50.390;8.616;2023-04-15T05:25:42;4.25;;;2.58;;
37677;SDS011;23517;50.390;8.616;2023-04-15T05:28:09;5.22;;;3.15;;
37677;SDS011;23517;50.390;8.616;2023-04-15T05:30:36;7.30;;;3.08;;
37677;SDS011;23517;50.390;8.616;2023-04-15T05:33:03;5.78;;;3.15;;
37677;SDS011;23517;50.390;8.616;2023-04-15T05:35:30;3.58;;;2.58;;
37677;SDS011;23517;50.390;8.616;2023-04-15T05:37:56;4.72;;;2.38;;
37677;SDS011;23517;50.390;8.616;2023-04-15T05:40:23;2.75;;;2.40;;
37677;SDS011;23517;50.390;8.616;2023-04-15T05:42:49;4.78;;;2.50;;
37677;SDS011;23517;50.390;8.616;2023-04-15T05:45:16;7.70;;;2.40;;
37677;SDS011;23517;50.390;8.616;2023-04-15T05:47:44;3.67;;;2.28;;
37677;SDS011;23517;50.390;8.616;2023-04-15T05:50:10;2.92;;;2.47;;
37677;SDS011;23517;50.390;8.616;2023-04-15T05:52:37;4.82;;;2.60;;
37677;SDS011;23517;50.390;8.616;2023-04-15T05:55:05;4.68;;;1.98;;
37677;SDS011;23517;50.390;8.616;2023-04-15T05:57:32;5.15;;;3.38;;
37677;SDS011;23517;50.390;8.616;2023-04-15T05:59:59;6.88;;;3.00;;
37677;SDS011;23517;50.390;8.616;2023-04-15T06:02:25;4.30;;;2.72;;
37677;SDS011;23517;50.390;8.616;2023-04-15T06:04:53;4.53;;;3.28;;
37677;SDS011;23517;50.390;8.616;2023-04-15T06:07:19;5.13;;;2.55;;
37677;SDS011;23517;50.390;8.616;2023-04-15T06:09:46;3.97;;;2.60;;
37677;SDS011;23517;50.390;8.616;2023-04-15T06:12:13;7.45;;;2.55;;
37677;SDS011;23517;50.390;8.616;2023-04-15T06:14:40;4.53;;;2.55;;
37677;SDS011;23517;50.390;8.616;2023-04-15T06:17:07;3.80;;;3.40;;
37677;SDS011;23517;50.390;8.616;2023-04-15T06:19:34;14.88;;;9.13;;
37677;SDS011;23517;50.390;8.616;2023-04-15T06:22:03;56.78;;;31.55;;
37677;SDS011;23517;50.390;8.616;2023-04-15T06:24:32;28.63;;;15.88;;
37677;SDS011;23517;50.390;8.616;2023-04-15T06:27:02;19.13;;;10.70;;
37677;SDS011;23517;50.390;8.616;2023-04-15T06:29:28;10.77;;;5.32;;
37677;SDS011;23517;50.390;8.616;2023-04-15T06:31:55;8.05;;;3.50;;
37677;SDS011;23517;50.390;8.616;2023-04-15T06:34:22;8.43;;;3.60;;
37677;SDS011;23517;50.390;8.616;2023-04-15T06:36:48;5.28;;;3.30;;
37677;SDS011;23517;50.390;8.616;2023-04-15T06:39:15;8.05;;;3.10;;
37677;SDS011;23517;50.390;8.616;2023-04-15T06:41:42;4.25;;;3.60;;
37677;SDS011;23517;50.390;8.616;2023-04-15T06:44:08;5.18;;;3.35;;
37677;SDS011;23517;50.390;8.616;2023-04-15T06:46:35;5.53;;;3.22;;
37677;SDS011;23517;50.390;8.616;2023-04-15T06:49:02;4.05;;;3.15;;
37677;SDS011;23517;50.390;8.616;2023-04-15T06:51:36;6.10;;;3.65;;
37677;SDS011;23517;50.390;8.616;2023-04-15T06:54:03;5.72;;;3.97;;
37677;SDS011;23517;50.390;8.616;2023-04-15T06:56:31;5.60;;;3.80;;
37677;SDS011;23517;50.390;8.616;2023-04-15T06:58:59;6.00;;;5.10;;
37677;SDS011;23517;50.390;8.616;2023-04-15T07:01:26;10.55;;;8.55;;
37677;SDS011;23517;50.390;8.616;2023-04-15T07:03:52;11.68;;;7.82;;
37677;SDS011;23517;50.390;8.616;2023-04-15T07:06:19;9.18;;;7.78;;
37677;SDS011;23517;50.390;8.616;2023-04-15T07:08:46;25.02;;;17.70;;
37677;SDS011;23517;50.390;8.616;2023-04-15T07:11:13;12.98;;;10.38;;
37677;SDS011;23517;50.390;8.616;2023-04-15T07:13:40;10.68;;;7.00;;
37677;SDS011;23517;50.390;8.616;2023-04-15T07:16:07;11.05;;;6.13;;
37677;SDS011;23517;50.390;8.616;2023-04-15T07:18:33;6.68;;;5.40;;
37677;SDS011;23517;50.390;8.616;2023-04-15T07:21:00;6.60;;;4.53;;
37677;SDS011;23517;50.390;8.616;2023-04-15T07:23:27;8.88;;;6.20;;
37677;SDS011;23517;50.390;8.616;2023-04-15T07:25:54;6.15;;;4.82;;
37677;SDS011;23517;50.390;8.616;2023-04-15T07:28:22;19.17;;;13.18;;
37677;SDS011;23517;50.390;8.616;2023-04-15T07:30:48;8.07;;;5.45;;
37677;SDS011;23517;50.390;8.616;2023-04-15T07:33:15;5.60;;;4.22;;
37677;SDS011;23517;50.390;8.616;2023-04-15T07:35:42;6.10;;;3.58;;
37677;SDS011;23517;50.390;8.616;2023-04-15T07:38:08;25.15;;;16.67;;
37677;SDS011;23517;50.390;8.616;2023-04-15T07:40:35;8.40;;;4.97;;
37677;SDS011;23517;50.390;8.616;2023-04-15T07:43:02;4.72;;;3.95;;
37677;SDS011;23517;50.390;8.616;2023-04-15T07:45:28;3.47;;;3.05;;
37677;SDS011;23517;50.390;8.616;2023-04-15T07:48:01;6.10;;;3.58;;
37677;SDS011;23517;50.390;8.616;2023-04-15T07:50:28;5.22;;;3.13;;
37677;SDS011;23517;50.390;8.616;2023-04-15T07:52:54;4.55;;;2.97;;
37677;SDS011;23517;50.390;8.616;2023-04-15T07:55:22;4.00;;;2.65;;
37677;SDS011;23517;50.390;8.616;2023-04-15T07:57:49;4.60;;;2.55;;
37677;SDS011;23517;50.390;8.616;2023-04-15T08:00:16;3.22;;;2.40;;
37677;SDS011;23517;50.390;8.616;2023-04-15T08:02:43;4.70;;;2.60;;
37677;SDS011;23517;50.390;8.616;2023-04-15T08:05:12;6.63;;;2.65;;
37677;SDS011;23517;50.390;8.616;2023-04-15T08:07:39;6.07;;;2.80;;
37677;SDS011;23517;50.390;8.616;2023-04-15T08:10:06;4.80;;;2.50;;
37677;SDS011;23517;50.390;8.616;2023-04-15T08:12:34;4.00;;;2.45;;
37677;SDS011;23517;50.390;8.616;2023-04-15T08:15:03;8.38;;;2.63;;
37677;SDS011;23517;50.390;8.616;2023-04-15T08:17:30;3.15;;;2.50;;
37677;SDS011;23517;50.390;8.616;2023-04-15T08:19:57;3.13;;;2.38;;
37677;SDS011;23517;50.390;8.616;2023-04-15T08:22:24;3.60;;;2.20;;
37677;SDS011;23517;50.390;8.616;2023-04-15T08:24:50;5.57;;;2.33;;
37677;SDS011;23517;50.390;8.616;2023-04-15T08:27:17;2.60;;;1.90;;
37677;SDS011;23517;50.390;8.616;2023-04-15T08:29:44;5.82;;;2.20;;
37677;SDS011;23517;50.390;8.616;2023-04-15T08:32:11;2.83;;;2.15;;
37677;SDS011;23517;50.390;8.616;2023-04-15T08:34:37;4.63;;;2.00;;
37677;SDS011;23517;50.390;8.616;2023-04-15T08:37:04;2.85;;;1.55;;
37677;SDS011;23517;50.390;8.616;2023-04-15T08:39:31;3.30;;;1.80;;
37677;SDS011;23517;50.390;8.616;2023-04-15T08:42:01;3.47;;;1.48;;
37677;SDS011;23517;50.390;8.616;2023-04-15T08:44:33;4.10;;;1.40;;
37677;SDS011;23517;50.390;8.616;2023-04-15T08:47:02;3.40;;;1.60;;
37677;SDS011;23517;50.390;8.616;2023-04-15T08:49:31;2.33;;;1.42;;
37677;SDS011;23517;50.390;8.616;2023-04-15T08:51:58;1.83;;;1.48;;
37677;SDS011;23517;50.390;8.616;2023-04-15T08:54:31;3.38;;;1.48;;
37677;SDS011;23517;50.390;8.616;2023-04-15T08:56:59;2.85;;;1.67;;
37677;SDS011;23517;50.390;8.616;2023-04-15T08:59:31;3.45;;;1.80;;
37677;SDS011;23517;50.390;8.616;2023-04-15T09:01:58;2.88;;;1.73;;
37677;SDS011;23517;50.390;8.616;2023-04-15T09:04:26;3.40;;;1.38;;
37677;SDS011;23517;50.390;8.616;2023-04-15T09:06:53;3.17;;;1.98;;
37677;SDS011;23517;50.390;8.616;2023-04-15T09:09:19;5.35;;;1.75;;
37677;SDS011;23517;50.390;8.616;2023-04-15T09:11:47;5.13;;;1.55;;
37677;SDS011;23517;50.390;8.616;2023-04-15T09:14:15;2.63;;;1.73;;
37677;SDS011;23517;50.390;8.616;2023-04-15T09:16:54;2.95;;;1.90;;
37677;SDS011;23517;50.390;8.616;2023-04-15T09:19:30;2.70;;;1.70;;
37677;SDS011;23517;50.390;8.616;2023-04-15T09:21:59;7.03;;;2.25;;
37677;SDS011;23517;50.390;8.616;2023-04-15T09:24:36;7.65;;;3.33;;
37677;SDS011;23517;50.390;8.616;2023-04-15T09:27:04;4.50;;;2.30;;
37677;SDS011;23517;50.390;8.616;2023-04-15T09:29:31;9.57;;;2.58;;
37677;SDS011;23517;50.390;8.616;2023-04-15T09:32:11;5.18;;;2.92;;
37677;SDS011;23517;50.390;8.616;2023-04-15T09:34:41;5.00;;;2.75;;
37677;SDS011;23517;50.390;8.616;2023-04-15T09:37:08;4.47;;;3.10;;
37677;SDS011;23517;50.390;8.616;2023-04-15T09:39:49;4.53;;;2.97;;
37677;SDS011;23517;50.390;8.616;2023-04-15T09:42:17;12.10;;;6.72;;
37677;SDS011;23517;50.390;8.616;2023-04-15T09:44:54;11.88;;;6.75;;
37677;SDS011;23517;50.390;8.616;2023-04-15T09:47:30;8.32;;;4.30;;
37677;SDS011;23517;50.390;8.616;2023-04-15T09:49:58;8.57;;;4.45;;
37677;SDS011;23517;50.390;8.616;2023-04-15T09:52:26;12.93;;;6.28;;
37677;SDS011;23517;50.390;8.616;2023-04-15T09:54:53;11.90;;;5.50;;
37677;SDS011;23517;50.390;8.616;2023-04-15T09:57:23;16.17;;;7.13;;
37677;SDS011;23517;50.390;8.616;2023-04-15T09:59:50;43.38;;;14.48;;
37677;SDS011;23517;50.390;8.616;2023-04-15T10:02:18;12.82;;;5.07;;
37677;SDS011;23517;50.390;8.616;2023-04-15T10:04:48;14.07;;;6.10;;
37677;SDS011;23517;50.390;8.616;2023-04-15T10:07:15;16.67;;;8.10;;
37677;SDS011;23517;50.390;8.616;2023-04-15T10:09:45;16.15;;;7.38;;
37677;SDS011;23517;50.390;8.616;2023-04-15T10:12:15;20.60;;;7.30;;
37677;SDS011;23517;50.390;8.616;2023-04-15T10:14:43;10.00;;;4.13;;
37677;SDS011;23517;50.390;8.616;2023-04-15T10:17:10;4.68;;;2.70;;
37677;SDS011;23517;50.390;8.616;2023-04-15T10:19:37;24.05;;;9.27;;
37677;SDS011;23517;50.390;8.616;2023-04-15T10:22:05;6.35;;;3.05;;
37677;SDS011;23517;50.390;8.616;2023-04-15T10:24:32;9.55;;;5.20;;
37677;SDS011;23517;50.390;8.616;2023-04-15T10:26:59;5.93;;;2.63;;
37677;SDS011;23517;50.390;8.616;2023-04-15T10:29:29;3.50;;;2.58;;
37677;SDS011;23517;50.390;8.616;2023-04-15T10:31:58;5.95;;;2.20;;
37677;SDS011;23517;50.390;8.616;2023-04-15T10:34:26;5.95;;;2.00;;
37677;SDS011;23517;50.390;8.616;2023-04-15T10:36:54;10.50;;;2.50;;
37677;SDS011;23517;50.390;8.616;2023-04-15T10:44:36;3.20;;;1.83;;
37677;SDS011;23517;50.390;8.616;2023-04-15T10:47:06;3.63;;;1.88;;
37677;SDS011;23517;50.390;8.616;2023-04-15T10:49:47;3.10;;;2.20;;
37677;SDS011;23517;50.390;8.616;2023-04-15T10:52:17;3.40;;;1.92;;
37677;SDS011;23517;50.390;8.616;2023-04-15T10:54:50;5.47;;;2.60;;
37677;SDS011;23517;50.390;8.616;2023-04-15T10:57:39;4.78;;;2.10;;
37677;SDS011;23517;50.390;8.616;2023-04-15T11:02:37;2.70;;;2.25;;
37677;SDS011;23517;50.390;8.616;2023-04-15T11:05:22;3.47;;;;;
37677;SDS011;23517;50.390;8.616;2023-04-15T11:08:07;3.67;;;2.50;;
37677;SDS011;23517;50.390;8.616;2023-04-15T11:13:14;4.30;;;2.40;;
37677;SDS011;23517;50.390;8.616;2023-04-15T11:15:43;3.85;;;2.33;;
37677;SDS011;23517;50.390;8.616;2023-04-15T11:18:12;2.70;;;2.15;;
37677;SDS011;23517;50.390;8.616;2023-04-15T11:20:46;3.13;;;2.38;;
37677;SDS011;23517;50.390;8.616;2023-04-15T11:23:26;2.70;;;2.50;;
37677;SDS011;23517;50.390;8.616;2023-04-15T11:25:59;2.97;;;2.63;;
37677;SDS011;23517;50.390;8.616;2023-04-15T11:28:29;3.97;;;2.83;;
37677;SDS011;23517;50.390;8.616;2023-04-15T11:30:57;3.85;;;2.67;;
37677;SDS011;23517;50.390;8.616;2023-04-15T11:33:31;4.35;;;2.67;;
37677;SDS011;23517;50.390;8.616;2023-04-15T11:35:57;2.88;;;2.58;;
37677;SDS011;23517;50.390;8.616;2023-04-15T11:38:24;2.90;;;2.42;;
37677;SDS011;23517;50.390;8.616;2023-04-15T11:40:51;3.38;;;2.88;;
37677;SDS011;23517;50.390;8.616;2023-04-15T11:43:21;3.28;;;2.70;;
37677;SDS011;23517;50.390;8.616;2023-04-15T11:48:22;3.85;;;2.65;;
37677;SDS011;23517;50.390;8.616;2023-04-15T11:51:01;5.35;;;2.55;;
37677;SDS011;23517;50.390;8.616;2023-04-15T11:56:04;4.45;;;3.00;;
37677;SDS011;23517;50.390;8.616;2023-04-15T11:58:33;3.28;;;2.97;;
37677;SDS011;23517;50.390;8.616;2023-04-15T12:01:04;3.50;;;2.55;;
37677;SDS011;23517;50.390;8.616;2023-04-15T12:11:33;2.60;;;2.33;;
37677;SDS011;23517;50.390;8.616;2023-04-15T12:14:31;5.00;;;3.10;;
37677;SDS011;23517;50.390;8.616;2023-04-15T12:16:59;7.25;;;4.38;;
37677;SDS011;23517;50.390;8.616;2023-04-15T12:19:34;7.70;;;4.93;;
37677;SDS011;23517;50.390;8.616;2023-04-15T12:22:10;8.07;;;5.60;;
37677;SDS011;23517;50.390;8.616;2023-04-15T12:24:40;3.78;;;3.00;;
37677;SDS011;23517;50.390;8.616;2023-04-15T12:27:15;2.88;;;2.50;;
37677;SDS011;23517;50.390;8.616;2023-04-15T12:29:42;6.80;;;4.40;;
37677;SDS011;23517;50.390;8.616;2023-04-15T12:32:10;7.22;;;4.35;;
37677;SDS011;23517;50.390;8.616;2023-04-15T12:34:52;5.40;;;4.07;;
37677;SDS011;23517;50.390;8.616;2023-04-15T12:37:21;4.55;;;3.38;;
37677;SDS011;23517;50.390;8.616;2023-04-15T12:39:48;5.95;;;4.03;;
37677;SDS011;23517;50.390;8.616;2023-04-15T12:42:15;4.75;;;3.00;;
37677;SDS011;23517;50.390;8.616;2023-04-15T12:44:43;4.10;;;3.05;;
37677;SDS011;23517;50.390;8.616;2023-04-15T12:47:10;5.45;;;4.25;;
37677;SDS011;23517;50.390;8.616;2023-04-15T12:49:37;3.75;;;2.90;;
37677;SDS011;23517;50.390;8.616;2023-04-15T12:52:04;4.80;;;3.50;;
37677;SDS011;23517;50.390;8.616;2023-04-15T12:54:31;6.35;;;4.18;;
37677;SDS011;23517;50.390;8.616;2023-04-15T12:56:58;2.45;;;2.17;;
37677;SDS011;23517;50.390;8.616;2023-04-15T12:59:25;3.03;;;2.05;;
37677;SDS011;23517;50.390;8.616;2023-04-15T13:01:53;2.38;;;1.80;;
37677;SDS011;23517;50.390;8.616;2023-04-15T13:04:20;3.53;;;2.20;;
37677;SDS011;23517;50.390;8.616;2023-04-15T13:06:47;4.05;;;1.98;;
37677;SDS011;23517;50.390;8.616;2023-04-15T13:09:14;4.32;;;2.33;;
37677;SDS011;23517;50.390;8.616;2023-04-15T13:11:41;2.80;;;2.10;;
37677;SDS011;23517;50.390;8.616;2023-04-15T13:14:08;2.25;;;2.05;;
37677;SDS011;23517;50.390;8.616;2023-04-15T13:16:37;2.17;;;1.90;;
37677;SDS011;23517;50.390;8.616;2023-04-15T13:19:04;3.65;;;2.80;;
37677;SDS011;23517;50.390;8.616;2023-04-15T13:21:31;5.90;;;3.00;;
37677;SDS011;23517;50.390;8.616;2023-04-15T13:24:01;5.32;;;3.72;;
37677;SDS011;23517;50.390;8.616;2023-04-15T13:26:29;4.60;;;2.33;;
37677;SDS011;23517;50.390;8.616;2023-04-15T13:28:56;5.22;;;3.10;;
37677;SDS011;23517;50.390;8.616;2023-04-15T13:31:23;6.28;;;3.20;;
37677;SDS011;23517;50.390;8.616;2023-04-15T13:33:50;6.75;;;4.70;;
37677;SDS011;23517;50.390;8.616;2023-04-15T13:36:16;3.38;;;2.83;;
37677;SDS011;23517;50.390;8.616;2023-04-15T13:38:46;2.10;;;1.90;;
37677;SDS011;23517;50.390;8.616;2023-04-15T13:41:16;2.30;;;2.10;;
37677;SDS011;23517;50.390;8.616;2023-04-15T13:43:43;3.00;;;2.70;;
37677;SDS011;23517;50.390;8.616;2023-04-15T13:46:09;2.70;;;1.90;;
37677;SDS011;23517;50.390;8.616;2023-04-15T13:48:36;4.88;;;2.85;;
37677;SDS011;23517;50.390;8.616;2023-04-15T13:51:03;3.53;;;2.83;;
37677;SDS011;23517;50.390;8.616;2023-04-15T13:53:29;5.55;;;2.75;;
37677;SDS011;23517;50.390;8.616;2023-04-15T13:56:07;4.93;;;2.83;;
37677;SDS011;23517;50.390;8.616;2023-04-15T13:58:35;3.58;;;3.22;;
37677;SDS011;23517;50.390;8.616;2023-04-15T14:01:06;5.50;;;3.47;;
37677;SDS011;23517;50.390;8.616;2023-04-15T14:03:33;3.20;;;2.90;;
37677;SDS011;23517;50.390;8.616;2023-04-15T14:06:01;2.35;;;2.15;;
37677;SDS011;23517;50.390;8.616;2023-04-15T14:08:28;2.83;;;2.50;;
37677;SDS011;23517;50.390;8.616;2023-04-15T14:10:55;3.70;;;2.80;;
37677;SDS011;23517;50.390;8.616;2023-04-15T14:13:22;3.55;;;3.08;;
37677;SDS011;23517;50.390;8.616;2023-04-15T14:15:49;4.38;;;3.53;;
37677;SDS011;23517;50.390;8.616;2023-04-15T14:18:16;4.68;;;3.58;;
37677;SDS011;23517;50.390;8.616;2023-04-15T14:20:42;3.33;;;2.97;;
37677;SDS011;23517;50.390;8.616;2023-04-15T14:23:09;4.53;;;2.80;;
37677;SDS011;23517;50.390;8.616;2023-04-15T14:25:36;2.55;;;2.35;;
37677;SDS011;23517;50.390;8.616;2023-04-15T14:28:04;2.20;;;2.00;;
37677;SDS011;23517;50.390;8.616;2023-04-15T14:30:31;9.77;;;6.85;;
37677;SDS011;23517;50.390;8.616;2023-04-15T14:32:57;4.72;;;4.22;;
37677;SDS011;23517;50.390;8.616;2023-04-15T14:35:24;2.58;;;2.05;;
37677;SDS011;23517;50.390;8.616;2023-04-15T14:37:52;3.08;;;2.35;;
37677;SDS011;23517;50.390;8.616;2023-04-15T14:40:19;5.53;;;3.00;;
37677;SDS011;23517;50.390;8.616;2023-04-15T14:42:46;10.93;;;6.43;;
37677;SDS011;23517;50.390;8.616;2023-04-15T14:45:13;5.30;;;3.42;;
37677;SDS011;23517;50.390;8.616;2023-04-15T14:47:40;5.68;;;3.58;;
37677;SDS011;23517;50.390;8.616;2023-04-15T14:50:07;5.53;;;3.88;;
37677;SDS011;23517;50.390;8.616;2023-04-15T14:52:34;6.55;;;4.10;;
37677;SDS011;23517;50.390;8.616;2023-04-15T14:55:07;9.27;;;6.15;;
37677;SDS011;23517;50.390;8.616;2023-04-15T14:57:39;3.88;;;2.78;;
37677;SDS011;23517;50.390;8.616;2023-04-15T15:00:07;8.05;;;5.82;;
37677;SDS011;23517;50.390;8.616;2023-04-15T15:02:38;5.88;;;4.45;;
37677;SDS011;23517;50.390;8.616;2023-04-15T15:05:06;3.20;;;2.90;;
37677;SDS011;23517;50.390;8.616;2023-04-15T15:07:34;2.03;;;1.83;;
37677;SDS011;23517;50.390;8.616;2023-04-15T15:10:03;1.75;;;1.65;;
37677;SDS011;23517;50.390;8.616;2023-04-15T15:12:31;1.58;;;1.48;;
37677;SDS011;23517;50.390;8.616;2023-04-15T15:14:58;1.40;;;1.30;;